Time;durP1;ratioP1;P1;durP2;ratioP2;P2;SDS_P1;SDS_P2;PMS_P1;PMS_P2;Temp;Humidity;BMP_temperature;BMP_pressure;BME280_temperature;BME280_humidity;BME280_pressure;Samples;Min_cycle;Max_cycle;Signal;HPM_P1;HPM_P2
2021/12/13 00:00:25;;;;;;;1999.90;999.90;;;;;;;-0.74;94.93;162203.75;5039421;28;20076;-64
2021/12/13 00:03:00;;;;;;;1999.90;999.90;;;;;;;-0.48;92.86;162272.06;5034971;28;20085;-64
2021/12/13 00:05:38;;;;;;;1999.90;999.90;;;;;;;-0.64;93.13;162229.72;5036204;28;20045;-64
2021/12/13 00:08:09;;;;;;;1999.90;999.90;;;;;;;-0.82;93.29;162180.50;5036884;28;20154;-64
2021/12/13 00:10:56;;;;;;;;;;;;;;;-0.68;94.09;162217.44;5038619;28;20089;-64
2021/12/13 00:13:28;;;;;;;1999.90;999.90;;;;;;;-0.53;93.17;162258.41;5036356;28;20314;-64
2021/12/13 00:16:02;;;;;;;1999.90;999.90;;;;;;;-0.74;93.86;162202.41;5042777;28;20272;-64
2021/12/13 00:18:34;;;;;;;1999.90;999.90;;;;;;;-0.84;94.81;162176.41;5042396;28;20068;-64
2021/12/13 00:21:23;;;;;;;1999.90;999.90;;;;;;;-0.80;94.42;162186.00;5042199;28;20081;-64
2021/12/13 00:23:55;;;;;;;1999.90;999.90;;;;;;;-1.00;94.85;162132.69;5042447;28;20408;-64
2021/12/13 00:26:27;;;;;;;1999.90;999.90;;;;;;;-0.69;93.74;162216.03;5040640;28;20104;-64
2021/12/13 00:28:55;;;;;;;1999.90;999.90;;;;;;;-0.73;93.22;162205.09;5034483;28;20152;-64
2021/12/13 00:31:31;;;;;;;1999.90;999.90;;;;;;;-0.66;92.70;162224.22;5043432;28;20085;-64
2021/12/13 00:34:03;;;;;;;1999.90;999.90;;;;;;;-0.68;92.82;162218.78;5040410;28;20045;-64
2021/12/13 00:36:51;;;;;;;1999.90;999.90;;;;;;;-0.73;93.12;162206.50;5042374;28;20094;-64
2021/12/13 00:39:32;;;;;;;1999.90;999.90;;;;;;;-0.88;93.22;162165.47;5035551;28;20103;-64
2021/12/13 00:42:02;;;;;;;1999.90;999.90;;;;;;;-0.88;92.73;162165.47;5037019;28;20391;-64
2021/12/13 00:44:42;;;;;;;1999.90;999.90;;;;;;;-0.98;92.60;162138.16;5039992;28;20045;-63
2021/12/13 00:47:31;;;;;;;1999.90;999.90;;;;;;;-0.73;92.82;162205.09;5043450;28;20069;-64
2021/12/13 00:50:13;;;;;;;1999.90;999.90;;;;;;;-0.53;91.82;162258.41;5034579;28;20049;-64
2021/12/13 00:52:43;;;;;;;;;;;;;;;-0.64;92.12;162228.31;5040620;28;20084;-64
2021/12/13 00:55:22;;;;;;;1999.90;999.90;;;;;;;-0.50;92.07;162265.25;5039069;28;19967;-64
2021/12/13 00:57:52;;;;;;;1999.90;999.90;;;;;;;-0.37;91.61;162302.16;5033571;28;20147;-64
2021/12/13 01:00:32;;;;;;;1999.90;999.90;;;;;;;-0.48;92.92;162272.06;5031813;28;20088;-64
2021/12/13 01:03:21;;;;;;;1999.90;999.90;;;;;;;-0.51;92.47;162263.84;5037742;28;20064;-64
2021/12/13 01:06:10;;;;;;;1999.90;999.90;;;;;;;-0.44;92.90;162281.66;5041897;28;20103;-64
2021/12/13 01:08:42;;;;;;;1999.90;999.90;;;;;;;-0.51;92.77;162263.84;5036838;28;20121;-64
2021/12/13 01:11:36;;;;;;;1999.90;999.90;;;;;;;-0.57;93.34;162247.47;5038551;28;20598;-64
2021/12/13 01:14:30;;;;;;;1999.90;999.90;;;;;;;-0.47;92.42;162274.81;5037269;28;20041;-64
2021/12/13 01:17:05;;;;;;;1999.90;999.90;;;;;;;-0.62;92.87;162233.81;5036857;28;20041;-64
2021/12/13 01:19:50;;;;;;;1999.90;999.90;;;;;;;-0.99;93.88;162135.44;5040714;28;20052;-64
2021/12/13 01:27:51;;;;;;;1999.90;999.90;;;;;;;-0.79;93.61;162190.09;5034544;28;20037;-64
2021/12/13 01:30:27;;;;;;;1999.90;999.90;;;;;;;-0.77;93.47;162195.56;5041673;28;20044;-64
2021/12/13 01:32:57;;;;;;;1999.90;999.90;;;;;;;-0.68;93.71;162218.78;5046624;28;20331;-64
2021/12/13 01:35:27;;;;;;;1999.90;999.90;;;;;;;-0.75;93.40;162201.00;5038194;28;20049;-64
2021/12/13 01:37:54;;;;;;;1999.90;999.90;;;;;;;-0.70;93.04;162213.28;5030057;28;20045;-64
2021/12/13 01:40:26;;;;;;;1999.90;999.90;;;;;;;-0.66;93.46;162222.88;5038025;28;20122;-64
2021/12/13 01:42:59;;;;;;;1999.90;999.90;;;;;;;-0.70;94.17;162213.28;5040062;28;20041;-64
2021/12/13 01:45:30;;;;;;;1999.90;999.90;;;;;;;-0.40;93.10;162292.59;5034869;28;20053;-64
2021/12/13 01:47:57;;;;;;;1999.90;999.90;;;;;;;-0.61;93.14;162237.91;5043731;28;20073;-64
2021/12/13 01:50:31;;;;;;;1999.90;999.90;;;;;;;-0.36;92.03;162303.50;5037429;28;20069;-64
2021/12/13 01:53:00;;;;;;;1999.90;999.90;;;;;;;-0.99;94.05;162135.44;5037966;28;20275;-64
2021/12/13 01:55:35;;;;;;;1999.90;999.90;;;;;;;-0.79;94.18;162188.72;5044288;28;20067;-64
2021/12/13 01:58:36;;;;;;;1999.90;999.90;;;;;;;-0.32;92.11;162314.44;5037898;28;20126;-64
2021/12/13 02:01:11;;;;;;;1999.90;999.90;;;;;;;-0.08;91.29;162377.31;5036616;28;20091;-64
2021/12/13 02:03:38;;;;;;;1999.90;999.90;;;;;;;-0.40;91.01;162292.59;5036857;28;20047;-64
2021/12/13 02:06:05;;;;;;;1999.90;999.90;;;;;;;-0.37;91.57;162302.16;5037027;28;20248;-64
2021/12/13 02:08:33;;;;;;;1999.90;999.90;;;;;;;-0.41;91.41;162289.84;5034834;28;20338;-64
2021/12/13 02:11:00;;;;;;;1999.90;999.90;;;;;;;-0.19;91.06;162349.97;5036168;28;20041;-64
2021/12/13 02:13:41;;;;;;;1999.90;999.90;;;;;;;-0.13;90.68;162365.03;5038292;28;20085;-64
2021/12/13 02:18:58;;;;;;;1999.90;999.90;;;;;;;-0.27;90.60;162328.13;5041740;28;20042;-64
2021/12/13 02:21:33;;;;;;;1999.90;999.90;;;;;;;-0.26;91.03;162329.47;5037923;28;20041;-64
2021/12/13 02:24:08;;;;;;;1999.90;999.90;;;;;;;-0.12;90.64;162367.78;5035142;28;20110;-64
2021/12/13 02:26:39;;;;;;;1999.90;999.90;;;;;;;-0.05;90.21;162386.88;5035329;28;20084;-64
2021/12/13 02:29:14;;;;;;;1999.90;999.90;;;;;;;-0.27;90.06;162328.13;5044436;28;20103;-64
2021/12/13 02:31:42;;;;;;;1999.90;999.90;;;;;;;-0.33;90.46;162311.69;5044571;28;20099;-64
2021/12/13 02:34:13;;;;;;;1999.90;999.90;;;;;;;-0.07;90.13;162380.06;5040071;28;20062;-64
2021/12/13 02:36:49;;;;;;;1999.90;999.90;;;;;;;-0.22;90.23;162340.44;5039514;28;20389;-64
2021/12/13 02:39:20;;;;;;;1999.90;999.90;;;;;;;-0.50;90.46;162265.25;5042217;28;20095;-64
2021/12/13 02:41:47;;;;;;;1999.90;999.90;;;;;;;-0.44;91.03;162283.00;5038703;28;20419;-64
2021/12/13 02:44:28;;;;;;;1999.90;999.90;;;;;;;-0.39;90.56;162296.69;5044995;28;20053;-64
2021/12/13 02:46:58;;;;;;;1999.90;999.90;;;;;;;-0.11;90.42;162369.13;5039895;28;20313;-64
2021/12/13 02:49:25;;;;;;;1999.90;999.90;;;;;;;-0.11;89.58;162369.13;5035434;28;20430;-64
2021/12/13 02:51:59;;;;;;;1999.90;999.90;;;;;;;0.08;89.24;162419.72;5039649;28;20291;-64
2021/12/13 02:54:29;;;;;;;1999.90;999.90;;;;;;;-0.10;89.07;162373.22;5047664;28;20088;-64
2021/12/13 02:57:06;;;;;;;1999.90;999.90;;;;;;;-0.30;89.87;162318.53;5034608;28;20434;-64
2021/12/13 02:59:36;;;;;;;1999.90;999.90;;;;;;;-0.44;90.25;162283.00;5041517;28;20053;-64
2021/12/13 03:02:41;;;;;;;1999.90;999.90;;;;;;;-0.44;90.00;162281.66;5039344;28;20347;-64
2021/12/13 03:05:14;;;;;;;1999.90;999.90;;;;;;;-0.89;90.95;162164.13;5022132;28;20085;-64
2021/12/13 03:07:45;;;;;;;1999.90;999.90;;;;;;;-0.84;90.62;162175.06;5034484;28;20081;-64
2021/12/13 03:10:19;;;;;;;1999.90;999.90;;;;;;;-0.62;90.49;162233.81;5038724;28;20076;-64
2021/12/13 03:12:46;;;;;;;1999.90;999.90;;;;;;;-0.40;90.02;162292.59;5039053;28;20349;-64
2021/12/13 03:15:16;;;;;;;1999.90;999.90;;;;;;;-0.39;89.92;162295.28;5034156;28;20123;-64
2021/12/13 03:17:47;;;;;;;1999.90;999.90;;;;;;;-0.24;89.52;162334.94;5037882;28;20041;-64
2021/12/13 03:20:43;;;;;;;1999.90;999.90;;;;;;;-0.30;89.34;162318.53;5039719;28;20084;-64
2021/12/13 03:23:18;;;;;;;1999.90;999.90;;;;;;;-0.23;89.54;162339.03;5038738;28;20059;-64
2021/12/13 03:26:06;;;;;;;1999.90;999.90;;;;;;;-0.35;89.56;162306.25;5043490;28;20057;-64
2021/12/13 03:28:41;;;;;;;1999.90;999.90;;;;;;;-0.38;90.24;162298.03;5039246;28;20046;-64
2021/12/13 03:31:22;;;;;;;1999.90;999.90;;;;;;;-0.12;89.87;162367.78;5040296;28;20701;-64
2021/12/13 03:33:51;;;;;;;1999.90;999.90;;;;;;;-0.10;89.86;162373.22;5034138;28;20434;-64
2021/12/13 03:36:23;;;;;;;1999.90;999.90;;;;;;;-0.07;89.72;162381.41;5044536;28;20045;-64
2021/12/13 03:38:51;;;;;;;;;;;;;;;0.09;90.04;162422.41;5039914;28;20519;-64
2021/12/13 03:41:22;;;;;;;1999.90;999.90;;;;;;;0.01;90.02;162400.56;5045648;28;19971;-64
2021/12/13 03:43:52;;;;;;;;;;;;;;;0.09;89.37;162422.41;5035589;28;20047;-64
2021/12/13 03:46:23;;;;;;;1999.90;999.90;;;;;;;-0.15;90.07;162359.53;5039043;28;20269;-65
2021/12/13 03:48:52;;;;;;;1999.90;999.90;;;;;;;-0.39;91.24;162296.69;5040077;28;20154;-62
2021/12/13 03:51:23;;;;;;;1999.90;999.90;;;;;;;-0.11;91.29;162370.47;5040750;28;20084;-62
2021/12/13 03:53:53;;;;;;;1999.90;999.90;;;;;;;-0.26;90.99;162329.47;5042932;28;20567;-65
2021/12/13 03:56:26;;;;;;;1999.90;999.90;;;;;;;-0.09;90.67;162375.97;5038126;28;20437;-65
2021/12/13 03:58:58;;;;;;;1999.90;999.90;;;;;;;-0.06;90.36;162384.16;5036468;28;20073;-64
2021/12/13 04:01:34;;;;;;;1999.90;999.90;;;;;;;-0.46;91.25;162277.56;5041864;28;20049;-64
2021/12/13 04:04:05;;;;;;;1999.90;999.90;;;;;;;-0.69;92.18;162214.69;5041947;28;20484;-64
2021/12/13 04:06:31;;;;;;;1999.90;999.90;;;;;;;-0.56;91.66;162251.56;5032298;28;20092;-64
2021/12/13 04:08:58;;;;;;;1999.90;999.90;;;;;;;-0.48;91.53;162272.06;5042114;28;20046;-65
2021/12/13 04:11:27;;;;;;;1999.90;999.90;;;;;;;-0.36;90.88;162303.50;5040550;28;20079;-64
2021/12/13 04:14:07;;;;;;;1999.90;999.90;;;;;;;-0.19;90.68;162349.97;5035647;28;20515;-64
2021/12/13 04:17:02;;;;;;;1999.90;999.90;;;;;;;0.06;89.97;162415.63;5037799;28;20067;-64
2021/12/13 04:19:43;;;;;;;1999.90;999.90;;;;;;;0.20;89.51;162452.53;5036437;28;20053;-64
2021/12/13 04:22:11;;;;;;;1999.90;999.90;;;;;;;0.23;89.65;162459.38;5002502;28;1143611;-62
2021/12/13 04:24:52;;;;;;;1999.90;999.90;;;;;;;0.16;89.33;162441.56;5043527;28;20317;-63
2021/12/13 04:27:23;;;;;;;;;;;;;;;0.16;89.61;162442.97;5041194;28;20111;-63
2021/12/13 04:29:54;;;;;;;1999.90;999.90;;;;;;;0.09;89.76;162422.41;5038504;28;19987;-63
2021/12/13 04:32:30;;;;;;;1999.90;999.90;;;;;;;-0.01;90.10;162396.47;5037928;28;20073;-63
2021/12/13 04:35:00;;;;;;;1999.90;999.90;;;;;;;-0.02;90.06;162393.72;5044173;28;20077;-63
2021/12/13 04:37:34;;;;;;;1999.90;999.90;;;;;;;0.07;89.80;162418.31;5036782;28;20073;-63
2021/12/13 04:40:06;;;;;;;1999.90;999.90;;;;;;;-0.02;89.84;162393.72;5036662;28;20045;-63
2021/12/13 04:42:33;;;;;;;1999.90;999.90;;;;;;;0.14;89.43;162437.47;5038079;28;20075;-63
2021/12/13 04:45:10;;;;;;;1999.90;999.90;;;;;;;0.17;89.61;162444.31;5041433;28;20076;-63
2021/12/13 04:48:07;;;;;;;1999.90;999.90;;;;;;;0.03;89.77;162407.41;5040102;28;20088;-63
2021/12/13 04:51:08;;;;;;;1999.90;999.90;;;;;;;-0.09;90.51;162374.56;5034846;28;20536;-63
2021/12/13 04:53:44;;;;;;;1999.90;999.90;;;;;;;-0.17;89.75;162354.06;5042015;28;20118;-63
2021/12/13 04:56:14;;;;;;;1999.90;999.90;;;;;;;0.06;89.45;162414.22;5044708;28;20167;-63
2021/12/13 04:58:46;;;;;;;1999.90;999.90;;;;;;;0.13;89.40;162434.72;5040561;28;20080;-62
2021/12/13 05:01:14;;;;;;;1999.90;999.90;;;;;;;0.13;89.95;162434.72;5032807;28;20052;-63
2021/12/13 05:03:52;;;;;;;1999.90;999.90;;;;;;;0.23;88.91;162460.72;5037182;28;20068;-63
2021/12/13 05:06:22;;;;;;;1999.90;999.90;;;;;;;0.45;88.27;162518.16;5038121;28;20103;-63
2021/12/13 05:08:53;;;;;;;1999.90;999.90;;;;;;;0.48;88.35;162527.72;5037377;28;20077;-63
2021/12/13 05:11:20;;;;;;;1999.90;999.90;;;;;;;0.55;88.02;162545.47;5039927;28;20107;-63
2021/12/13 05:13:55;;;;;;;1999.90;999.90;;;;;;;0.51;88.28;162535.94;5042274;28;20045;-64
2021/12/13 05:16:40;;;;;;;1999.90;999.90;;;;;;;0.56;88.16;162548.22;5037787;28;20114;-64
2021/12/13 05:19:09;;;;;;;1999.90;999.90;;;;;;;0.54;87.89;162542.78;5043239;28;20049;-64
2021/12/13 05:21:46;;;;;;;1999.90;999.90;;;;;;;0.49;87.86;162530.47;5042749;28;20138;-64
2021/12/13 05:24:22;;;;;;;1999.90;999.90;;;;;;;0.68;88.37;162581.03;5039739;28;20096;-64
2021/12/13 05:26:53;;;;;;;1999.90;999.90;;;;;;;0.43;87.96;162512.66;5043828;28;20072;-64
2021/12/13 05:29:37;;;;;;;1999.90;999.90;;;;;;;0.43;88.92;162512.66;5039811;28;20084;-64
2021/12/13 05:32:17;;;;;;;1999.90;999.90;;;;;;;0.59;88.07;162555.09;5040834;28;20048;-64
2021/12/13 05:34:49;;;;;;;1999.90;999.90;;;;;;;0.68;88.04;162581.03;5041235;28;20080;-64
2021/12/13 05:37:17;;;;;;;1999.90;999.90;;;;;;;0.62;87.97;162564.63;5036702;28;20100;-64
2021/12/13 05:40:06;;;;;;;1999.90;999.90;;;;;;;0.40;88.62;162504.47;5040460;28;20073;-64
2021/12/13 05:42:51;;;;;;;1999.90;999.90;;;;;;;0.47;88.96;162523.63;5040009;28;20072;-65
2021/12/13 05:45:37;;;;;;;1999.90;999.90;;;;;;;0.31;89.30;162481.22;5042527;28;20096;-65
2021/12/13 05:48:11;;;;;;;1999.90;999.90;;;;;;;0.09;90.66;162422.41;5037651;28;20092;-65
2021/12/13 05:50:46;;;;;;;1999.90;999.90;;;;;;;0.11;90.45;162427.91;5037439;28;20362;-65
2021/12/13 05:53:17;;;;;;;1999.90;999.90;;;;;;;-0.27;91.68;162326.72;5036696;28;20442;-64
2021/12/13 05:55:57;;;;;;;1999.90;999.90;;;;;;;-0.17;91.59;162354.06;5046250;28;20045;-65
2021/12/13 05:58:39;;;;;;;1999.90;999.90;;;;;;;0.08;91.00;162419.72;5033801;28;20053;-64
2021/12/13 06:01:27;;;;;;;1999.90;999.90;;;;;;;0.14;90.92;162437.47;5035871;28;20077;-65
2021/12/13 06:04:06;;;;;;;1999.90;999.90;;;;;;;0.28;89.99;162474.41;5042001;28;20140;-64
2021/12/13 06:06:43;;;;;;;1999.90;999.90;;;;;;;0.20;90.32;162452.53;5041719;28;20049;-65
2021/12/13 06:09:10;;;;;;;1999.90;999.90;;;;;;;0.45;89.25;162518.16;5038588;28;20080;-65
2021/12/13 06:11:39;;;;;;;1999.90;999.90;;;;;;;0.37;89.82;162497.63;5034644;28;20103;-62
2021/12/13 06:14:15;;;;;;;1999.90;999.90;;;;;;;0.32;90.02;162485.31;5038542;28;20102;-62
2021/12/13 06:16:54;;;;;;;1999.90;999.90;;;;;;;0.33;90.41;162486.72;5041191;28;20134;-63
2021/12/13 06:19:33;;;;;;;1999.90;999.90;;;;;;;0.59;89.40;162555.09;5037651;28;20041;-63
2021/12/13 06:22:08;;;;;;;1999.90;999.90;;;;;;;0.73;89.11;162592.00;5042948;28;20088;-63
2021/12/13 06:24:46;;;;;;;1999.90;999.90;;;;;;;0.76;89.16;162600.19;5033109;28;20135;-63
2021/12/13 06:27:22;;;;;;;1999.90;999.90;;;;;;;0.88;88.60;162633.06;5035434;28;20050;-63
2021/12/13 06:30:05;;;;;;;1999.90;999.90;;;;;;;1.00;88.26;162665.88;5036802;28;20203;-63
2021/12/13 06:32:49;;;;;;;1999.90;999.90;;;;;;;0.71;88.42;162587.91;5033564;28;20088;-63
2021/12/13 06:35:34;;;;;;;1999.90;999.90;;;;;;;0.76;88.41;162600.19;5043851;28;20056;-63
2021/12/13 06:38:38;;;;;;;1999.90;999.90;;;;;;;0.49;89.23;162529.06;5033543;28;20397;-63
2021/12/13 06:41:07;;;;;;;1999.90;999.90;;;;;;;0.69;89.34;162582.44;5034987;28;20045;-63
2021/12/13 06:44:07;;;;;;;1999.90;999.90;;;;;;;0.86;88.73;162627.56;5040420;28;20048;-63
2021/12/13 06:46:38;;;;;;;1999.90;999.90;;;;;;;0.90;88.47;162638.53;5030948;28;20049;-63
2021/12/13 06:49:17;;;;;;;1999.90;999.90;;;;;;;0.99;88.36;162661.78;5039876;28;20044;-65
2021/12/13 06:51:53;;;;;;;1999.90;999.90;;;;;;;1.03;88.66;162672.75;5035167;28;20073;-63
2021/12/13 06:54:43;;;;;;;1999.90;999.90;;;;;;;0.96;88.69;162653.56;5030985;28;20084;-63
2021/12/13 06:57:15;;;;;;;1999.90;999.90;;;;;;;1.15;88.08;162705.56;5031285;28;20089;-63
2021/12/13 06:59:47;;;;;;;1999.90;999.90;;;;;;;1.27;87.83;162737.03;5036165;28;20107;-63
2021/12/13 07:02:18;;;;;;;1999.90;999.90;;;;;;;1.08;88.35;162686.41;5037941;28;20052;-64
2021/12/13 07:05:01;;;;;;;1999.90;999.90;;;;;;;1.08;88.69;162686.41;5037183;28;20080;-63
2021/12/13 07:07:37;;;;;;;1999.90;999.90;;;;;;;1.23;88.39;162726.06;5035245;28;20046;-63
2021/12/13 07:10:10;;;;;;;1999.90;999.90;;;;;;;1.37;88.51;162764.41;5031989;28;20077;-64
2021/12/13 07:12:52;;;;;;;1999.90;999.90;;;;;;;1.43;88.15;162779.47;5042901;28;20057;-63
2021/12/13 07:15:38;;;;;;;1999.90;999.90;;;;;;;1.49;87.70;162794.50;5037400;28;20337;-63
2021/12/13 07:18:04;;;;;;;1999.90;999.90;;;;;;;1.47;87.77;162790.38;5038000;28;20102;-63
2021/12/13 07:20:43;;;;;;;1999.90;999.90;;;;;;;1.47;87.99;162789.03;5040031;28;20087;-63
2021/12/13 07:23:10;;;;;;;1999.90;999.90;;;;;;;1.42;88.03;162776.72;5037661;28;20060;-64
2021/12/13 07:25:39;;;;;;;1999.90;999.90;;;;;;;1.25;89.23;162731.59;5043447;28;20057;-63
2021/12/13 07:28:09;;;;;;;1999.90;999.90;;;;;;;1.32;89.40;162750.69;5040499;28;20111;-63
2021/12/13 07:30:37;;;;;;;1999.90;999.90;;;;;;;1.32;89.43;162750.69;5033611;28;20102;-63
2021/12/13 07:33:08;;;;;;;1999.90;999.90;;;;;;;1.43;89.36;162779.47;5045830;28;20095;-63
2021/12/13 07:35:40;;;;;;;1999.90;999.90;;;;;;;1.55;89.25;162812.31;5040552;28;20087;-63
2021/12/13 07:38:19;;;;;;;1999.90;999.90;;;;;;;1.50;89.49;162798.59;5040076;28;20050;-63
2021/12/13 07:40:55;;;;;;;1999.90;999.90;;;;;;;1.74;89.14;162861.56;5040847;28;20354;-63
2021/12/13 07:43:29;;;;;;;1999.90;999.90;;;;;;;1.71;88.83;162854.75;5043314;28;20081;-63
2021/12/13 07:46:02;;;;;;;1999.90;999.90;;;;;;;1.81;89.10;162880.72;5039068;28;20048;-63
2021/12/13 07:48:40;;;;;;;1999.90;999.90;;;;;;;1.90;88.62;162905.38;5043604;28;20077;-64
2021/12/13 07:51:07;;;;;;;1999.90;999.90;;;;;;;1.93;88.83;162912.22;5046061;28;20576;-63
2021/12/13 07:53:40;;;;;;;1999.90;999.90;;;;;;;2.13;88.93;162965.66;5042349;28;20061;-64
2021/12/13 07:56:07;;;;;;;1999.90;999.90;;;;;;;2.18;88.47;162977.97;5045899;28;20084;-64
2021/12/13 07:58:38;;;;;;;1999.90;999.90;;;;;;;2.36;88.36;163027.25;5046996;28;20348;-64
2021/12/13 08:01:13;;;;;;;1999.90;999.90;;;;;;;2.34;87.92;163021.78;5043078;28;20485;-64
2021/12/13 08:03:51;;;;;;;1999.90;999.90;;;;;;;2.29;88.27;163009.47;5048673;28;20102;-64
2021/12/13 08:06:18;;;;;;;1999.90;999.90;;;;;;;2.31;88.87;163012.16;5044197;28;20103;-64
2021/12/13 08:08:48;;;;;;;1999.90;999.90;;;;;;;2.27;88.73;163003.97;5042567;28;20077;-64
2021/12/13 08:11:18;;;;;;;1999.90;999.90;;;;;;;2.39;88.29;163034.09;5045145;28;20306;-65
2021/12/13 08:13:57;;;;;;;1999.90;999.90;;;;;;;2.47;88.46;163057.38;5047305;28;20323;-64
2021/12/13 08:16:34;;;;;;;1999.90;999.90;;;;;;;2.38;89.36;163032.75;5041753;28;20439;-65
2021/12/13 08:19:20;;;;;;;1999.90;999.90;;;;;;;1.57;91.45;162816.41;5038500;28;20047;-64
2021/12/13 08:21:55;;;;;;;1999.90;999.90;;;;;;;1.36;92.26;162760.31;5034509;28;20514;-64
2021/12/13 08:24:43;;;;;;;1999.90;999.90;;;;;;;1.24;93.43;162728.84;5045294;28;20117;-64
2021/12/13 08:27:27;;;;;;;1999.90;999.90;;;;;;;1.70;91.55;162852.00;5041539;28;20080;-64
2021/12/13 08:30:17;;;;;;;1999.90;999.90;;;;;;;1.91;90.44;162906.78;5040924;28;20410;-64
2021/12/13 08:33:24;;;;;;;1999.90;999.90;;;;;;;1.51;91.17;162800.00;5035144;28;20042;-64
2021/12/13 08:35:58;;;;;;;1999.90;999.90;;;;;;;1.79;91.27;162875.28;5039897;28;20395;-64
2021/12/13 08:38:58;;;;;;;1999.90;999.90;;;;;;;1.75;90.72;162865.66;5036740;28;20085;-64
2021/12/13 08:41:43;;;;;;;1999.90;999.90;;;;;;;2.06;90.53;162947.81;5038367;28;20102;-64
2021/12/13 08:44:09;;;;;;;1999.90;999.90;;;;;;;1.89;90.38;162901.25;5037676;28;20091;-64
2021/12/13 08:46:52;;;;;;;1999.90;999.90;;;;;;;2.10;89.98;162958.78;5040105;28;20057;-64
2021/12/13 08:49:36;;;;;;;1999.90;999.90;;;;;;;1.56;91.89;162813.66;5041301;28;20512;-64
2021/12/13 08:52:44;;;;;;;1999.90;999.90;;;;;;;1.66;92.01;162839.69;5039809;28;20046;-64
2021/12/13 08:55:11;;;;;;;1999.90;999.90;;;;;;;1.66;92.33;162841.03;5039846;28;20088;-64
2021/12/13 08:57:49;;;;;;;1999.90;999.90;;;;;;;1.69;92.18;162849.25;5044374;28;20471;-64
2021/12/13 09:00:32;;;;;;;1999.90;999.90;;;;;;;1.80;92.00;162876.63;5034610;28;20099;-64
2021/12/13 09:03:17;;;;;;;1999.90;999.90;;;;;;;1.90;91.41;162904.00;5035732;28;20042;-64
2021/12/13 09:05:56;;;;;;;1999.90;999.90;;;;;;;1.63;91.61;162831.47;5037751;28;20422;-64
2021/12/13 09:08:26;;;;;;;1999.90;999.90;;;;;;;1.99;91.44;162928.66;5036761;28;20705;-64
2021/12/13 09:11:23;;;;;;;1999.90;999.90;;;;;;;2.13;90.70;162965.66;5041651;28;20045;-64
2021/12/13 09:14:05;;;;;;;1999.90;999.90;;;;;;;2.11;91.37;162960.13;5041070;28;20049;-64
2021/12/13 09:16:40;;;;;;;1999.90;999.90;;;;;;;2.09;91.68;162954.69;5034925;28;20092;-64
2021/12/13 09:19:14;;;;;;;1999.90;999.90;;;;;;;1.47;93.85;162789.03;5038024;28;20057;-64
2021/12/13 09:21:54;;;;;;;1999.90;999.90;;;;;;;1.28;93.96;162739.78;5039242;28;20465;-64
2021/12/13 09:24:28;;;;;;;1999.90;999.90;;;;;;;1.07;95.91;162682.28;5041241;28;20077;-63
2021/12/13 09:27:25;;;;;;;1999.90;999.90;;;;;;;1.38;94.89;162765.75;5030729;28;20426;-63
2021/12/13 09:30:20;;;;;;;1999.90;999.90;;;;;;;1.71;94.21;162854.75;5034921;28;20081;-63
2021/12/13 09:32:58;;;;;;;1999.90;999.90;;;;;;;1.94;92.92;162916.31;5041216;28;20056;-64
2021/12/13 09:35:37;;;;;;;1999.90;999.90;;;;;;;2.26;92.43;162999.84;5049942;28;20081;-64
2021/12/13 09:38:42;;;;;;;1999.90;999.90;;;;;;;2.26;91.94;162999.84;5031956;28;20050;-64
2021/12/13 09:41:18;;;;;;;1999.90;999.90;;;;;;;2.46;91.76;163054.63;5043961;28;20137;-63
2021/12/13 09:44:18;;;;;;;1999.90;999.90;;;;;;;2.61;91.43;163093.00;5040215;28;20053;-64
2021/12/13 09:46:55;;;;;;;1999.90;999.90;;;;;;;2.57;91.91;163083.38;5037836;28;20045;-64
2021/12/13 09:49:28;;;;;;;1999.90;999.90;;;;;;;2.38;91.78;163032.75;5045979;28;20044;-64
2021/12/13 09:52:01;;;;;;;1999.90;999.90;;;;;;;2.65;91.58;163103.97;5033538;28;20187;-63
2021/12/13 09:54:34;;;;;;;1999.90;999.90;;;;;;;2.89;91.28;163166.94;5042368;28;20075;-64
2021/12/13 09:57:11;;;;;;;1999.90;999.90;;;;;;;2.86;90.52;163160.13;5039020;28;20073;-64
2021/12/13 09:59:59;;;;;;;1999.90;999.90;;;;;;;3.12;90.41;163229.97;5036477;28;20049;-63
2021/12/13 10:02:38;;;;;;;1999.90;999.90;;;;;;;3.16;90.40;163240.94;5047259;28;20542;-63
2021/12/13 10:05:08;;;;;;;1999.90;999.90;;;;;;;3.27;90.23;163269.72;5035550;28;20049;-63
2021/12/13 10:07:38;;;;;;;1999.90;999.90;;;;;;;3.27;90.63;163268.38;5044855;28;20069;-64
2021/12/13 10:10:12;;;;;;;1999.90;999.90;;;;;;;3.29;90.54;163273.81;5045283;28;20045;-64
2021/12/13 10:12:44;;;;;;;1999.90;999.90;;;;;;;3.20;91.02;163250.56;5038554;28;20072;-64
2021/12/13 10:15:18;;;;;;;1999.90;999.90;;;;;;;3.31;91.27;163279.34;5035787;28;20041;-64
2021/12/13 10:17:48;;;;;;;1999.90;999.90;;;;;;;3.38;91.09;163298.53;5032621;28;20049;-64
2021/12/13 10:20:20;;;;;;;1999.90;999.90;;;;;;;2.80;93.04;163143.69;5042834;28;20594;-64
2021/12/13 10:22:52;;;;;;;1999.90;999.90;;;;;;;2.66;94.74;163105.34;5039784;28;20068;-64
2021/12/13 10:25:27;;;;;;;1999.90;999.90;;;;;;;2.68;94.27;163110.78;5032430;28;20056;-64
2021/12/13 10:27:55;;;;;;;1999.90;999.90;;;;;;;3.10;93.51;163223.16;5035923;28;20146;-64
2021/12/13 10:30:30;;;;;;;1999.90;999.90;;;;;;;2.94;94.03;163180.66;5036121;28;20042;-64
2021/12/13 10:32:57;;;;;;;1999.90;999.90;;;;;;;2.63;94.85;163099.88;5032407;28;20081;-64
2021/12/13 10:35:28;;;;;;;1999.90;999.90;;;;;;;3.06;94.23;163213.53;5040044;28;20053;-64
2021/12/13 10:37:59;;;;;;;1999.90;999.90;;;;;;;3.17;93.51;163243.72;5043030;28;20610;-64
2021/12/13 10:40:51;;;;;;;1999.90;999.90;;;;;;;3.08;94.66;163217.66;5043202;28;20455;-63
2021/12/13 10:43:24;;;;;;;1999.90;999.90;;;;;;;3.11;94.69;163227.28;5040916;28;20053;-63
2021/12/13 10:45:58;;;;;;;1999.90;999.90;;;;;;;3.32;94.61;163283.44;5036044;28;20085;-63
2021/12/13 10:48:30;;;;;;;1999.90;999.90;;;;;;;3.57;93.91;163347.84;5041348;28;20053;-63
2021/12/13 10:51:06;;;;;;;1999.90;999.90;;;;;;;3.25;94.91;163262.91;5037866;28;20049;-63
2021/12/13 10:53:35;;;;;;;1999.90;999.90;;;;;;;3.41;95.02;163305.34;5047340;28;20076;-63
2021/12/13 10:56:13;;;;;;;1999.90;999.90;;;;;;;3.25;95.67;163262.91;5047643;28;20095;-63
2021/12/13 10:58:47;;;;;;;1999.90;999.90;;;;;;;3.48;94.80;163324.53;5044677;28;20099;-63
2021/12/13 11:01:19;;;;;;;1999.90;999.90;;;;;;;3.47;95.07;163323.19;5038426;28;20053;-64
2021/12/13 11:03:50;;;;;;;1999.90;999.90;;;;;;;3.58;94.89;163350.59;5040124;28;20092;-63
2021/12/13 11:06:18;;;;;;;1999.90;999.90;;;;;;;3.51;95.26;163334.16;5042386;28;20092;-63
2021/12/13 11:08:46;;;;;;;1999.90;999.90;;;;;;;3.60;94.88;163356.06;5033880;28;20046;-63
2021/12/13 11:11:33;;;;;;;1999.90;999.90;;;;;;;3.75;94.60;163395.81;5047522;28;20533;-63
2021/12/13 11:14:04;;;;;;;1999.90;999.90;;;;;;;3.75;94.37;163397.22;5042219;28;20204;-63
2021/12/13 11:16:35;;;;;;;1999.90;999.90;;;;;;;3.58;95.30;163351.97;5045214;28;20041;-63
2021/12/13 11:19:05;;;;;;;1999.90;999.90;;;;;;;3.51;95.64;163332.75;5047636;28;20049;-63
2021/12/13 11:21:35;;;;;;;1999.90;999.90;;;;;;;3.49;96.52;163327.31;5040702;28;20080;-63
2021/12/13 11:24:06;;;;;;;1999.90;999.90;;;;;;;3.61;96.08;163358.81;5038620;28;20076;-63
2021/12/13 11:26:36;;;;;;;1999.90;999.90;;;;;;;3.69;95.97;163380.72;5040580;28;20392;-63
2021/12/13 11:29:05;;;;;;;1999.90;999.90;;;;;;;3.45;96.55;163317.69;5047694;28;20077;-63
2021/12/13 11:31:32;;;;;;;1999.90;999.90;;;;;;;3.64;96.43;163367.03;5042235;28;20094;-63
2021/12/13 11:33:59;;;;;;;1999.90;999.90;;;;;;;3.53;96.66;163339.63;5046973;28;20044;-63
2021/12/13 11:36:44;;;;;;;1999.90;999.90;;;;;;;3.59;97.25;163354.72;5041520;28;20053;-63
2021/12/13 11:39:34;;;;;;;1999.90;999.90;;;;;;;3.83;96.45;163419.13;5039667;28;20179;-62